createdAt,value
2022-09-25T00:02:43.246Z,7.57
2022-09-25T00:05:49.596Z,6.77
2022-09-25T00:08:55.631Z,6.57
2022-09-25T00:12:03.428Z,7.97
2022-09-25T00:15:10.646Z,7.20
2022-09-25T00:18:17.063Z,8.23
2022-09-25T00:21:22.753Z,7.43
2022-09-25T00:24:28.747Z,5.97
2022-09-25T00:27:36.407Z,7.30
2022-09-25T00:30:42.712Z,6.30
2022-09-25T00:33:48.783Z,8.03
2022-09-25T00:36:55.299Z,7.00
2022-09-25T00:40:01.671Z,8.30
2022-09-25T00:43:15.432Z,6.73
2022-09-25T00:46:24.451Z,5.77
2022-09-25T00:49:30.759Z,6.67
2022-09-25T00:52:37.342Z,9.63
2022-09-25T00:55:45.579Z,5.67
2022-09-25T00:58:52.913Z,5.33
2022-09-25T01:01:59.653Z,14.07
2022-09-25T01:05:10.927Z,6.33
2022-09-25T01:08:21.150Z,6.83
2022-09-25T01:11:27.232Z,5.33
2022-09-25T01:14:34.901Z,6.23
2022-09-25T01:17:50.580Z,5.10
2022-09-25T01:21:17.427Z,4.90
2022-09-25T01:24:58.696Z,6.07
2022-09-25T01:28:20.304Z,6.57
2022-09-25T01:31:36.138Z,6.37
2022-09-25T01:34:47.011Z,6.07
2022-09-25T01:38:00.069Z,7.13
2022-09-25T01:41:12.040Z,7.27
2022-09-25T01:44:26.045Z,11.03
2022-09-25T01:47:38.685Z,8.03
2022-09-25T01:50:49.224Z,7.73
2022-09-25T01:54:01.939Z,6.33
2022-09-25T01:57:11.948Z,6.57
2022-09-25T02:00:23.083Z,5.03
2022-09-25T02:03:38.098Z,5.57
2022-09-25T02:06:49.162Z,6.23
2022-09-25T02:09:59.272Z,8.57
2022-09-25T02:13:13.336Z,7.83
2022-09-25T02:16:23.784Z,7.00
2022-09-25T02:19:49.295Z,5.80
2022-09-25T02:22:56.784Z,5.27
2022-09-25T02:26:07.825Z,8.30
2022-09-25T02:29:14.143Z,5.50
2022-09-25T02:32:24.081Z,5.23
2022-09-25T02:35:31.469Z,6.60
2022-09-25T02:38:37.393Z,6.07
2022-09-25T02:41:55.968Z,5.20
2022-09-25T02:45:11.732Z,6.33
2022-09-25T02:48:29.217Z,7.73
2022-09-25T02:51:45.569Z,7.63
2022-09-25T02:54:58.434Z,7.00
2022-09-25T02:58:11.839Z,6.90
2022-09-25T03:01:21.692Z,13.27
2022-09-25T03:04:29.684Z,8.47
2022-09-25T03:07:52.188Z,5.83
2022-09-25T03:10:58.610Z,9.27
2022-09-25T03:14:06.029Z,7.30
2022-09-25T03:17:15.264Z,7.37
2022-09-25T03:20:21.699Z,20.43
2022-09-25T03:23:29.353Z,60.47
2022-09-25T03:26:35.470Z,24.00
2022-09-25T03:29:41.871Z,13.93
2022-09-25T03:32:47.655Z,13.07
2022-09-25T03:36:02.321Z,16.03
2022-09-25T03:39:11.178Z,15.10
2022-09-25T03:42:18.305Z,42.33
2022-09-25T03:45:24.972Z,18.93
2022-09-25T03:48:31.747Z,8.67
2022-09-25T03:51:39.072Z,11.67
2022-09-25T03:54:47.082Z,10.43
2022-09-25T03:57:53.296Z,8.97
2022-09-25T04:00:59.665Z,6.27
2022-09-25T04:04:06.041Z,5.87
2022-09-25T04:07:12.368Z,6.50
2022-09-25T04:10:20.339Z,13.70
2022-09-25T04:13:26.896Z,22.50
2022-09-25T04:16:33.100Z,28.53
2022-09-25T04:19:39.252Z,17.97
2022-09-25T04:22:45.453Z,12.83
2022-09-25T04:25:53.306Z,19.77
2022-09-25T04:29:01.688Z,22.63
2022-09-25T04:32:25.460Z,17.40
2022-09-25T04:35:31.501Z,13.77
2022-09-25T04:38:38.482Z,9.20
2022-09-25T04:41:46.216Z,7.90
2022-09-25T04:44:54.035Z,5.70
2022-09-25T04:48:02.136Z,18.77
2022-09-25T04:51:08.489Z,11.67
2022-09-25T04:54:16.279Z,11.17
2022-09-25T04:57:53.426Z,6.13
2022-09-25T05:00:52.914Z,12.77
2022-09-25T05:03:59.264Z,22.97
2022-09-25T05:07:05.851Z,34.30
2022-09-25T05:10:12.372Z,27.70
2022-09-25T05:13:19.895Z,23.73
2022-09-25T05:16:28.196Z,20.93
2022-09-25T05:19:34.209Z,12.53
2022-09-25T05:22:40.247Z,22.93
2022-09-25T05:25:53.045Z,13.40
2022-09-25T05:29:00.432Z,18.13
2022-09-25T05:32:07.692Z,15.13
2022-09-25T05:35:13.787Z,23.07
2022-09-25T05:38:19.664Z,21.23
2022-09-25T05:41:26.620Z,15.53
2022-09-25T05:44:34.115Z,19.20
2022-09-25T05:47:40.136Z,11.47
2022-09-25T05:50:46.554Z,9.77
2022-09-25T05:53:54.515Z,11.40
2022-09-25T05:57:00.603Z,8.93
2022-09-25T06:00:11.548Z,9.67
2022-09-25T06:03:18.080Z,7.93
2022-09-25T06:06:27.468Z,8.57
2022-09-25T06:09:33.871Z,9.40
2022-09-25T06:12:40.381Z,8.67
2022-09-25T06:15:50.837Z,8.73
2022-09-25T06:18:56.867Z,11.07
2022-09-25T06:22:03.077Z,7.70
2022-09-25T06:25:10.970Z,10.20
2022-09-25T06:28:17.178Z,11.70
2022-09-25T06:31:24.520Z,10.70
2022-09-25T06:34:31.069Z,8.27
2022-09-25T06:37:37.362Z,7.90
2022-09-25T06:40:45.111Z,5.83
2022-09-25T06:43:51.736Z,11.43
2022-09-25T06:46:59.932Z,5.57
2022-09-25T06:50:06.855Z,7.40
2022-09-25T06:53:13.967Z,7.30
2022-09-25T06:56:20.325Z,8.80
2022-09-25T06:59:27.133Z,11.67
2022-09-25T07:02:52.279Z,6.67
2022-09-25T07:06:01.209Z,10.60
2022-09-25T07:09:07.314Z,8.27
2022-09-25T07:12:13.748Z,9.63
2022-09-25T07:15:20.384Z,9.00
2022-09-25T07:18:29.908Z,8.77
2022-09-25T07:21:36.265Z,8.40
2022-09-25T07:24:42.814Z,7.90
2022-09-25T07:27:49.223Z,11.07
2022-09-25T07:30:55.718Z,7.30
2022-09-25T07:34:09.316Z,5.90
2022-09-25T07:37:16.649Z,7.67
2022-09-25T07:40:22.706Z,4.23
2022-09-25T07:43:28.630Z,4.77
2022-09-25T07:46:35.063Z,6.07
2022-09-25T07:49:42.813Z,7.53
2022-09-25T07:52:49.133Z,6.23
2022-09-25T07:56:03.663Z,5.73
2022-09-25T07:59:12.003Z,5.17
2022-09-25T08:02:18.308Z,5.20
2022-09-25T08:05:25.939Z,5.13
2022-09-25T08:08:32.616Z,4.23
2022-09-25T08:11:38.487Z,4.20
2022-09-25T08:14:44.605Z,4.27
2022-09-25T08:17:51.016Z,12.40
2022-09-25T08:21:03.990Z,4.00
2022-09-25T08:24:11.056Z,3.73
2022-09-25T08:27:17.119Z,4.03
2022-09-25T08:30:23.309Z,4.10
2022-09-25T08:33:29.894Z,4.10
2022-09-25T08:36:37.764Z,4.37
2022-09-25T08:39:44.680Z,4.87
2022-09-25T08:42:54.291Z,4.97
2022-09-25T08:46:22.742Z,15.10
2022-09-25T08:49:35.012Z,9.63
2022-09-25T08:52:45.500Z,11.47
2022-09-25T08:56:09.876Z,16.00
2022-09-25T08:59:26.309Z,8.27
2022-09-25T09:02:40.797Z,8.17
2022-09-25T09:05:51.782Z,4.70
2022-09-25T09:09:05.043Z,5.03
2022-09-25T09:12:16.716Z,9.67
2022-09-25T09:15:31.622Z,4.90
2022-09-25T09:18:40.622Z,5.10
2022-09-25T09:21:53.292Z,6.47
2022-09-25T09:25:05.644Z,3.50
2022-09-25T09:28:46.031Z,5.80
2022-09-25T09:32:03.281Z,4.43
2022-09-25T09:35:23.209Z,3.63
2022-09-25T09:38:40.307Z,5.13
2022-09-25T09:42:01.790Z,4.20
2022-09-25T09:45:18.539Z,4.57
2022-09-25T09:48:32.585Z,3.97
2022-09-25T09:51:44.360Z,7.07
2022-09-25T09:54:55.397Z,4.07
2022-09-25T09:58:09.197Z,4.93
2022-09-25T10:01:39.765Z,5.70
2022-09-25T10:04:44.387Z,5.70
2022-09-25T10:07:52.705Z,4.53
2022-09-25T10:10:59.283Z,5.30
2022-09-25T10:14:07.092Z,4.23
2022-09-25T10:17:13.946Z,5.33
2022-09-25T10:20:23.462Z,4.40
2022-09-25T10:23:38.856Z,4.03
2022-09-25T10:26:45.235Z,3.67
2022-09-25T10:30:20.598Z,3.03
2022-09-25T10:33:28.880Z,4.47
2022-09-25T10:36:42.508Z,3.00
2022-09-25T10:40:03.180Z,2.73
2022-09-25T10:43:20.568Z,3.00
2022-09-25T10:46:48.708Z,2.80
2022-09-25T10:50:13.425Z,6.60
2022-09-25T10:53:30.690Z,4.13
2022-09-25T10:56:39.110Z,2.57
2022-09-25T10:59:50.296Z,3.17
2022-09-25T11:02:59.963Z,2.73
2022-09-25T11:06:09.344Z,3.20
2022-09-25T11:09:18.899Z,3.07
2022-09-25T11:12:28.700Z,3.90
2022-09-25T11:15:39.271Z,4.47
2022-09-25T11:18:48.152Z,4.50
2022-09-25T11:22:04.901Z,2.60
2022-09-25T11:25:17.613Z,10.67
2022-09-25T11:28:31.778Z,8.13
2022-09-25T11:31:43.787Z,2.97
2022-09-25T11:35:17.164Z,3.10
2022-09-25T11:38:52.967Z,2.90
2022-09-25T11:42:05.577Z,2.53
2022-09-25T11:45:20.597Z,13.30
2022-09-25T11:48:37.439Z,3.10
2022-09-25T11:52:32.662Z,2.80
2022-09-25T11:56:04.573Z,3.23
2022-09-25T11:59:27.171Z,7.23
2022-09-25T12:03:01.199Z,3.70
2022-09-25T12:06:24.122Z,2.90
2022-09-25T12:09:47.477Z,6.37
2022-09-25T12:13:03.419Z,3.43
2022-09-25T12:16:19.853Z,2.53
2022-09-25T12:19:40.005Z,2.93
2022-09-25T12:22:56.539Z,4.40
2022-09-25T12:26:23.105Z,3.50
2022-09-25T12:29:45.296Z,3.23
2022-09-25T12:33:19.162Z,3.03
2022-09-25T12:36:36.486Z,3.30
2022-09-25T12:39:46.242Z,2.73
2022-09-25T12:42:57.099Z,2.50
2022-09-25T12:46:13.520Z,2.50
2022-09-25T12:49:28.472Z,2.30
2022-09-25T12:52:42.805Z,5.27
2022-09-25T12:55:54.318Z,3.50
2022-09-25T12:59:12.236Z,4.90
2022-09-25T13:02:27.229Z,27.57
2022-09-25T13:05:38.254Z,23.60
2022-09-25T13:08:50.356Z,4.13
2022-09-25T13:12:02.668Z,3.20
2022-09-25T13:15:15.370Z,9.30
2022-09-25T13:18:24.751Z,3.73
2022-09-25T13:21:33.733Z,3.60
2022-09-25T13:24:45.117Z,3.60
2022-09-25T13:27:54.255Z,5.43
2022-09-25T13:31:09.434Z,13.63
2022-09-25T13:34:19.940Z,6.53
2022-09-25T13:37:31.726Z,5.47
2022-09-25T13:40:46.562Z,6.00
2022-09-25T13:44:42.122Z,3.40
2022-09-25T13:47:56.982Z,3.70
2022-09-25T13:51:32.844Z,3.47
2022-09-25T13:54:40.273Z,3.30
2022-09-25T13:58:04.083Z,3.27
2022-09-25T14:01:32.519Z,7.43
2022-09-25T14:04:40.580Z,5.93
2022-09-25T14:07:54.985Z,3.20
2022-09-25T14:11:05.958Z,3.43
2022-09-25T14:14:18.777Z,4.20
2022-09-25T14:17:29.901Z,3.90
2022-09-25T14:20:41.189Z,3.33
2022-09-25T14:23:50.559Z,5.80
2022-09-25T14:26:59.768Z,3.20
2022-09-25T14:30:11.432Z,3.60
2022-09-25T14:33:32.837Z,5.47
2022-09-25T14:36:50.447Z,3.53
2022-09-25T14:40:05.686Z,3.10
2022-09-25T14:43:40.579Z,6.43
2022-09-25T14:46:57.200Z,11.97
2022-09-25T14:50:04.477Z,6.13
2022-09-25T14:53:15.763Z,6.80
2022-09-25T14:56:22.956Z,9.70
2022-09-25T14:59:37.880Z,14.20
2022-09-25T15:02:47.283Z,13.53
2022-09-25T15:05:53.630Z,8.07
2022-09-25T15:09:02.936Z,8.70
2022-09-25T15:12:20.349Z,7.73
2022-09-25T15:15:28.121Z,7.23
2022-09-25T15:18:37.980Z,7.83
2022-09-25T15:21:45.265Z,7.13
2022-09-25T15:24:55.683Z,7.80
2022-09-25T15:28:02.450Z,11.63
2022-09-25T15:31:09.791Z,6.47
2022-09-25T15:34:15.997Z,6.93
2022-09-25T15:37:29.440Z,17.63
2022-09-25T15:40:35.501Z,4.50
2022-09-25T15:43:41.666Z,13.70
2022-09-25T15:46:52.076Z,3.13
2022-09-25T15:49:58.382Z,3.60
2022-09-25T15:53:05.180Z,7.20
2022-09-25T15:56:19.028Z,5.67
2022-09-25T15:59:29.467Z,4.80
2022-09-25T16:02:57.383Z,62.43
2022-09-25T16:06:04.535Z,8.13
2022-09-25T16:09:19.953Z,8.53
2022-09-25T16:12:35.096Z,11.40
2022-09-25T16:15:51.864Z,8.97
2022-09-25T16:19:01.391Z,5.97
2022-09-25T16:22:22.987Z,3.80
2022-09-25T16:25:33.139Z,4.73
2022-09-25T16:28:40.024Z,5.17
2022-09-25T16:31:47.040Z,3.47
2022-09-25T16:35:00.452Z,4.80
2022-09-25T16:38:07.624Z,6.77
2022-09-25T16:41:22.208Z,7.10
2022-09-25T16:44:47.217Z,6.80
2022-09-25T16:47:53.710Z,6.27
2022-09-25T16:51:02.342Z,8.20
2022-09-25T16:54:12.298Z,5.83
2022-09-25T16:57:18.761Z,5.73
2022-09-25T17:00:29.936Z,4.07
2022-09-25T17:03:49.975Z,3.67
2022-09-25T17:06:59.131Z,5.53
2022-09-25T17:10:05.367Z,44.87
2022-09-25T17:13:14.538Z,53.30
2022-09-25T17:16:20.958Z,58.97
2022-09-25T17:19:28.391Z,58.83
2022-09-25T17:22:36.168Z,61.43
2022-09-25T17:25:45.800Z,20.13
2022-09-25T17:28:52.342Z,21.77
2022-09-25T17:31:59.153Z,20.33
2022-09-25T17:35:23.455Z,72.80
2022-09-25T17:38:32.449Z,68.30
2022-09-25T17:41:39.172Z,57.60
2022-09-25T17:44:47.508Z,65.00
2022-09-25T17:47:55.840Z,54.23
2022-09-25T17:51:03.268Z,46.00
2022-09-25T17:54:12.804Z,37.13
2022-09-25T17:57:18.881Z,19.77
2022-09-25T18:00:25.490Z,13.10
2022-09-25T18:03:31.752Z,11.83
2022-09-25T18:06:38.381Z,11.47
2022-09-25T18:09:45.951Z,9.43
2022-09-25T18:12:51.900Z,13.53
2022-09-25T18:16:00.257Z,13.67
2022-09-25T18:19:23.769Z,21.90
2022-09-25T18:22:29.889Z,36.53
2022-09-25T18:25:40.825Z,35.17
2022-09-25T18:28:47.330Z,24.30
2022-09-25T18:31:54.021Z,21.67
2022-09-25T18:35:02.473Z,25.53
2022-09-25T18:38:08.859Z,12.83
2022-09-25T18:41:16.423Z,10.33
2022-09-25T18:44:23.601Z,4.27
2022-09-25T18:47:30.092Z,2.77
2022-09-25T18:50:36.365Z,7.57
2022-09-25T18:53:42.984Z,21.47
2022-09-25T18:56:50.652Z,19.80
2022-09-25T18:59:57.724Z,15.53
2022-09-25T19:03:04.456Z,12.50
2022-09-25T19:06:12.732Z,23.53
2022-09-25T19:09:24.308Z,17.60
2022-09-25T19:12:31.869Z,17.53
2022-09-25T19:15:38.178Z,13.37
2022-09-25T19:18:44.270Z,18.13
2022-09-25T19:21:50.780Z,21.60
2022-09-25T19:24:57.902Z,13.70
2022-09-25T19:28:05.738Z,10.30
2022-09-25T19:31:15.699Z,52.40
2022-09-25T19:34:22.233Z,26.00
2022-09-25T19:37:30.092Z,25.27
2022-09-25T19:40:39.953Z,7.83
2022-09-25T19:43:48.604Z,15.03
2022-09-25T19:46:54.917Z,10.80
2022-09-25T19:50:01.193Z,15.77
2022-09-25T19:53:07.434Z,9.50
2022-09-25T19:56:14.064Z,11.10
2022-09-25T19:59:22.040Z,6.10
2022-09-25T20:02:28.621Z,14.67
2022-09-25T20:05:39.331Z,12.70
2022-09-25T20:08:46.009Z,6.83
2022-09-25T20:11:52.191Z,11.13
2022-09-25T20:15:00.129Z,12.57
2022-09-25T20:18:06.957Z,6.27
2022-09-25T20:21:15.204Z,11.37
2022-09-25T20:24:22.961Z,5.57
2022-09-25T20:27:29.224Z,7.03
2022-09-25T20:30:36.735Z,14.37
2022-09-25T20:33:43.885Z,11.63
2022-09-25T20:36:50.900Z,14.67
2022-09-25T20:39:57.331Z,15.77
2022-09-25T20:43:03.735Z,12.90
2022-09-25T20:46:13.673Z,20.40
2022-09-25T20:49:20.475Z,9.53
2022-09-25T20:52:27.083Z,8.33
2022-09-25T20:55:38.775Z,9.90
2022-09-25T20:58:50.660Z,7.03
2022-09-25T21:02:02.379Z,9.17
2022-09-25T21:05:10.060Z,11.40
2022-09-25T21:08:16.167Z,11.00
2022-09-25T21:11:23.859Z,10.43
2022-09-25T21:14:30.201Z,11.67
2022-09-25T21:17:37.680Z,9.60
2022-09-25T21:20:43.670Z,9.33
2022-09-25T21:23:51.664Z,8.83
2022-09-25T21:26:58.095Z,9.53
2022-09-25T21:30:03.935Z,9.07
2022-09-25T21:33:11.562Z,6.00
2022-09-25T21:36:18.679Z,8.23
2022-09-25T21:39:24.891Z,9.60
2022-09-25T21:42:31.435Z,5.80
2022-09-25T21:45:37.333Z,4.87
2022-09-25T21:48:50.993Z,6.40
2022-09-25T21:51:57.147Z,6.47
2022-09-25T21:55:03.065Z,7.07
2022-09-25T21:58:09.206Z,6.53
2022-09-25T22:01:17.145Z,6.50
2022-09-25T22:04:25.080Z,11.17
2022-09-25T22:07:31.896Z,10.10
2022-09-25T22:10:37.975Z,7.53
2022-09-25T22:13:46.364Z,9.93
2022-09-25T22:16:53.702Z,11.33
2022-09-25T22:20:05.423Z,7.03
2022-09-25T22:23:11.527Z,8.20
2022-09-25T22:26:19.375Z,7.37
2022-09-25T22:29:26.191Z,6.63
2022-09-25T22:32:33.659Z,8.33
2022-09-25T22:35:41.046Z,6.60
2022-09-25T22:38:47.471Z,10.20
2022-09-25T22:41:55.316Z,6.40
2022-09-25T22:45:01.380Z,6.07
2022-09-25T22:48:07.465Z,13.50
2022-09-25T22:51:16.902Z,6.57
2022-09-25T22:54:23.316Z,6.67
2022-09-25T22:57:29.993Z,7.60
2022-09-25T23:00:35.962Z,6.63
2022-09-25T23:03:42.250Z,6.53
2022-09-25T23:06:50.552Z,11.50
2022-09-25T23:09:56.652Z,12.00
2022-09-25T23:13:03.283Z,6.97
2022-09-25T23:16:09.973Z,6.37
2022-09-25T23:19:16.855Z,6.40
2022-09-25T23:22:24.727Z,4.33
2022-09-25T23:25:31.141Z,5.23
2022-09-25T23:28:38.590Z,6.60
2022-09-25T23:31:45.568Z,6.80
2022-09-25T23:34:52.310Z,5.40
2022-09-25T23:38:00.037Z,5.83
2022-09-25T23:41:15.209Z,6.70
2022-09-25T23:44:21.474Z,5.47
2022-09-25T23:47:27.880Z,6.43
2022-09-25T23:50:34.094Z,6.40
2022-09-25T23:53:43.115Z,6.00
2022-09-25T23:56:49.186Z,13.60
2022-09-25T23:59:55.794Z,8.00
